createdAt,value
2019-02-26T00:00:47.006Z,99.90
2019-02-26T00:03:19.743Z,99.90
2019-02-26T00:05:52.074Z,99.90
2019-02-26T00:08:24.573Z,99.90
2019-02-26T00:10:57.064Z,99.90
2019-02-26T00:13:29.479Z,99.90
2019-02-26T00:16:03.244Z,99.90
2019-02-26T00:18:32.377Z,99.90
2019-02-26T00:21:04.917Z,99.90
2019-02-26T00:23:35.513Z,99.90
2019-02-26T00:26:06.186Z,99.90
2019-02-26T00:28:39.086Z,99.90
2019-02-26T00:31:08.940Z,99.90
2019-02-26T00:33:39.727Z,99.90
2019-02-26T00:36:11.201Z,99.90
2019-02-26T00:38:44.366Z,99.90
2019-02-26T00:41:15.275Z,99.90
2019-02-26T00:43:45.892Z,99.90
2019-02-26T00:46:16.723Z,99.90
2019-02-26T00:48:47.397Z,99.90
2019-02-26T00:51:20.506Z,99.90
2019-02-26T00:53:52.760Z,99.90
2019-02-26T00:56:22.785Z,99.90
2019-02-26T00:58:55.717Z,99.90
2019-02-26T01:01:26.415Z,99.90
2019-02-26T01:03:57.187Z,99.90
2019-02-26T01:06:28.985Z,99.90
2019-02-26T01:09:01.851Z,99.90
2019-02-26T01:11:34.263Z,99.90
2019-02-26T01:14:05.141Z,99.90
2019-02-26T01:16:37.064Z,99.90
2019-02-26T01:19:09.055Z,99.90
2019-02-26T01:21:39.917Z,99.90
2019-02-26T01:24:10.770Z,99.90
2019-02-26T01:26:43.537Z,99.90
2019-02-26T01:29:16.164Z,99.90
2019-02-26T01:31:45.561Z,99.90
2019-02-26T01:34:17.959Z,99.90
2019-02-26T01:36:49.575Z,99.90
2019-02-26T01:39:21.603Z,99.90
2019-02-26T01:41:54.076Z,99.90
2019-02-26T01:44:28.117Z,99.90
2019-02-26T01:47:00.040Z,99.90
2019-02-26T01:49:30.033Z,99.90
2019-02-26T01:52:00.635Z,99.90
2019-02-26T01:54:32.959Z,99.90
2019-02-26T01:57:04.438Z,99.90
2019-02-26T01:59:35.118Z,99.90
2019-02-26T02:02:05.806Z,99.90
2019-02-26T02:04:38.838Z,99.90
2019-02-26T02:07:08.758Z,99.90
2019-02-26T02:09:39.352Z,99.90
2019-02-26T02:12:11.043Z,99.90
2019-02-26T02:14:41.954Z,99.90
2019-02-26T02:17:13.575Z,99.90
2019-02-26T02:19:44.413Z,99.90
2019-02-26T02:22:16.796Z,99.90
2019-02-26T02:24:49.047Z,99.90
2019-02-26T02:27:24.067Z,99.90
2019-02-26T02:29:55.440Z,99.90
2019-02-26T02:32:28.227Z,99.90
2019-02-26T02:35:03.177Z,99.90
2019-02-26T02:37:31.975Z,99.90
2019-02-26T02:40:02.707Z,99.90
2019-02-26T02:42:35.097Z,99.90
2019-02-26T02:45:10.024Z,99.90
2019-02-26T02:47:40.190Z,99.90
2019-02-26T02:50:14.838Z,99.90
2019-02-26T02:52:44.811Z,99.90
2019-02-26T02:55:19.097Z,99.90
2019-02-26T02:57:50.219Z,99.90
2019-02-26T03:00:22.743Z,99.90
2019-02-26T03:02:53.677Z,99.90
2019-02-26T03:05:25.200Z,99.90
2019-02-26T03:07:56.420Z,99.90
2019-02-26T03:10:30.816Z,99.90
2019-02-26T03:13:00.419Z,99.90
2019-02-26T03:15:33.746Z,99.90
2019-02-26T03:18:06.548Z,99.90
2019-02-26T03:20:40.236Z,99.90
2019-02-26T03:23:15.098Z,99.90
2019-02-26T03:25:44.558Z,99.90
2019-02-26T03:28:14.235Z,99.90
2019-02-26T03:30:44.817Z,99.90
2019-02-26T03:33:15.440Z,99.90
2019-02-26T03:35:45.989Z,99.90
2019-02-26T03:38:18.116Z,99.90
2019-02-26T03:40:49.297Z,99.90
2019-02-26T03:43:21.472Z,99.90
2019-02-26T03:45:52.191Z,99.90
2019-02-26T03:48:23.113Z,99.90
2019-02-26T03:50:53.513Z,99.90
2019-02-26T03:53:28.037Z,99.90
2019-02-26T03:55:59.564Z,99.90
2019-02-26T03:58:29.147Z,99.90
2019-02-26T04:01:04.531Z,99.90
2019-02-26T04:03:32.583Z,99.90
2019-02-26T04:06:08.777Z,99.90
2019-02-26T04:08:36.658Z,99.90
2019-02-26T04:11:07.122Z,99.90
2019-02-26T04:13:37.627Z,99.90
2019-02-26T04:16:08.081Z,99.90
2019-02-26T04:18:38.921Z,99.90
2019-02-26T04:21:12.188Z,99.90
2019-02-26T04:23:43.526Z,99.90
2019-02-26T04:26:49.244Z,99.90
2019-02-26T04:29:24.880Z,99.90
2019-02-26T04:32:20.883Z,99.90
2019-02-26T04:35:15.796Z,99.90
2019-02-26T04:38:31.334Z,99.90
2019-02-26T04:41:40.074Z,99.90
2019-02-26T04:44:39.850Z,99.90
2019-02-26T04:47:13.602Z,99.90
2019-02-26T04:49:44.222Z,99.90
2019-02-26T04:52:17.361Z,99.90
2019-02-26T04:54:47.079Z,99.90
2019-02-26T04:57:17.593Z,99.90
2019-02-26T04:59:48.600Z,99.90
2019-02-26T05:02:19.370Z,99.90
2019-02-26T05:04:49.920Z,99.90
2019-02-26T05:07:20.550Z,99.90
2019-02-26T05:09:53.312Z,99.90
2019-02-26T05:12:25.252Z,99.90
2019-02-26T05:14:55.689Z,99.90
2019-02-26T05:17:30.116Z,99.90
2019-02-26T05:19:58.845Z,99.90
2019-02-26T05:22:31.009Z,99.90
2019-02-26T05:25:04.445Z,99.90
2019-02-26T05:27:36.141Z,99.90
2019-02-26T05:30:07.481Z,99.90
2019-02-26T05:32:39.529Z,99.90
2019-02-26T05:35:11.579Z,99.90
2019-02-26T05:37:42.761Z,99.90
2019-02-26T05:40:18.328Z,99.90
2019-02-26T05:42:45.569Z,99.90
2019-02-26T05:45:16.451Z,99.90
2019-02-26T05:47:50.239Z,99.90
2019-02-26T05:50:19.779Z,99.90
2019-02-26T05:52:57.594Z,99.90
2019-02-26T05:55:25.496Z,99.90
2019-02-26T05:57:55.688Z,99.90
2019-02-26T06:00:30.616Z,99.90
2019-02-26T06:02:58.762Z,99.90
2019-02-26T06:05:29.896Z,99.90
2019-02-26T06:08:00.637Z,99.90
2019-02-26T06:10:32.594Z,99.90
2019-02-26T06:13:05.012Z,99.90
2019-02-26T06:15:35.374Z,99.90
2019-02-26T06:18:06.208Z,99.90
2019-02-26T06:20:36.926Z,99.90
2019-02-26T06:23:07.614Z,99.90
2019-02-26T06:25:38.896Z,99.90
2019-02-26T06:28:10.568Z,99.90
2019-02-26T06:30:42.154Z,99.90
2019-02-26T06:33:13.998Z,99.90
2019-02-26T06:35:52.037Z,99.90
2019-02-26T06:38:23.457Z,99.90
2019-02-26T06:40:54.834Z,99.90
2019-02-26T06:43:25.371Z,99.90
2019-02-26T06:45:56.152Z,99.90
2019-02-26T06:48:29.241Z,99.90
2019-02-26T06:51:00.420Z,99.90
2019-02-26T06:53:31.043Z,99.90
2019-02-26T06:56:01.667Z,99.90
2019-02-26T06:58:32.189Z,99.90
2019-02-26T07:01:02.737Z,99.90
2019-02-26T07:03:33.635Z,99.90
2019-02-26T07:06:04.932Z,99.90
2019-02-26T07:08:35.755Z,99.90
2019-02-26T07:11:07.302Z,99.90
2019-02-26T07:13:39.122Z,99.90
2019-02-26T07:16:10.513Z,99.90
2019-02-26T07:18:41.186Z,99.90
2019-02-26T07:21:11.692Z,99.90
2019-02-26T07:23:42.140Z,99.90
2019-02-26T07:26:13.634Z,99.90
2019-02-26T07:28:46.949Z,99.90
2019-02-26T07:31:17.914Z,99.90
2019-02-26T07:33:48.875Z,99.90
2019-02-26T07:36:21.077Z,99.90
2019-02-26T07:38:54.095Z,99.90
2019-02-26T07:41:52.344Z,99.90
2019-02-26T07:44:25.951Z,99.90
2019-02-26T07:46:56.104Z,99.90
2019-02-26T07:49:26.736Z,99.90
2019-02-26T07:51:58.287Z,99.90
2019-02-26T07:54:29.610Z,99.90
2019-02-26T07:57:02.700Z,99.90
2019-02-26T07:59:34.561Z,99.90
2019-02-26T08:02:06.403Z,99.90
2019-02-26T08:04:38.779Z,99.90
2019-02-26T08:07:09.194Z,99.90
2019-02-26T08:09:39.878Z,99.90
2019-02-26T08:12:11.278Z,99.90
2019-02-26T08:14:43.380Z,99.90
2019-02-26T08:17:14.825Z,99.90
2019-02-26T08:19:49.117Z,99.90
2019-02-26T08:22:18.923Z,99.90
2019-02-26T08:24:50.878Z,99.90
2019-02-26T08:27:21.769Z,99.90
2019-02-26T08:29:54.174Z,99.90
2019-02-26T08:32:26.194Z,99.90
2019-02-26T08:34:59.991Z,99.90
2019-02-26T08:37:29.151Z,99.90
2019-02-26T08:39:59.841Z,99.90
2019-02-26T08:42:30.311Z,99.90
2019-02-26T08:45:01.232Z,99.90
2019-02-26T08:47:42.377Z,99.90
2019-02-26T08:50:14.832Z,99.90
2019-02-26T08:52:49.402Z,99.90
2019-02-26T08:55:20.906Z,99.90
2019-02-26T08:57:52.007Z,99.90
2019-02-26T09:00:23.747Z,99.90
2019-02-26T09:02:56.705Z,99.90
2019-02-26T09:05:29.218Z,99.90
2019-02-26T09:07:59.291Z,99.90
2019-02-26T09:10:30.169Z,99.90
2019-02-26T09:13:01.147Z,99.90
2019-02-26T09:15:33.487Z,99.90
2019-02-26T09:18:03.858Z,99.90
2019-02-26T09:20:34.542Z,99.90
2019-02-26T09:23:05.390Z,99.90
2019-02-26T09:25:35.960Z,99.90
2019-02-26T09:28:06.704Z,99.90
2019-02-26T09:30:38.846Z,99.90
2019-02-26T09:33:11.019Z,99.90
2019-02-26T09:35:41.208Z,99.90
2019-02-26T09:38:22.949Z,99.90
2019-02-26T09:40:54.585Z,99.90
2019-02-26T09:43:24.828Z,99.80
2019-02-26T09:45:55.342Z,99.50
2019-02-26T09:48:25.866Z,99.80
2019-02-26T09:50:56.463Z,99.50
2019-02-26T09:53:26.918Z,99.20
2019-02-26T09:55:57.382Z,98.90
2019-02-26T09:58:28.111Z,98.40
2019-02-26T10:00:58.538Z,98.30
2019-02-26T10:03:29.716Z,98.10
2019-02-26T10:06:01.491Z,97.90
2019-02-26T10:08:32.187Z,97.70
2019-02-26T10:11:04.905Z,97.50
2019-02-26T10:13:35.138Z,97.50
2019-02-26T10:16:08.929Z,97.40
2019-02-26T10:18:39.578Z,97.30
2019-02-26T10:21:12.063Z,97.40
2019-02-26T10:23:42.287Z,97.00
2019-02-26T10:26:13.109Z,96.30
2019-02-26T10:28:46.600Z,96.50
2019-02-26T10:31:16.167Z,95.80
2019-02-26T10:33:48.930Z,95.80
2019-02-26T10:36:18.738Z,96.00
2019-02-26T10:38:50.911Z,95.30
2019-02-26T10:41:21.807Z,95.50
2019-02-26T10:43:52.581Z,95.20
2019-02-26T10:46:23.071Z,95.10
2019-02-26T10:48:53.725Z,94.90
2019-02-26T10:51:26.950Z,94.40
2019-02-26T10:53:57.501Z,94.40
2019-02-26T10:56:30.787Z,94.20
2019-02-26T10:59:03.503Z,94.60
2019-02-26T11:01:33.865Z,93.90
2019-02-26T11:04:05.796Z,93.90
2019-02-26T11:06:38.933Z,93.80
2019-02-26T11:09:14.328Z,93.40
2019-02-26T11:11:44.284Z,93.70
2019-02-26T11:14:17.326Z,93.60
2019-02-26T11:16:47.314Z,93.10
2019-02-26T11:19:17.821Z,93.10
2019-02-26T11:21:50.808Z,92.70
2019-02-26T11:24:23.456Z,92.60
2019-02-26T11:26:54.515Z,92.60
2019-02-26T11:29:26.133Z,93.10
2019-02-26T11:31:57.361Z,92.90
2019-02-26T11:34:28.700Z,92.60
2019-02-26T11:37:01.262Z,92.60
2019-02-26T11:39:32.639Z,92.20
2019-02-26T11:42:03.503Z,91.90
2019-02-26T11:44:35.287Z,92.00
2019-02-26T11:47:05.967Z,91.70
2019-02-26T11:49:37.591Z,91.80
2019-02-26T11:52:08.889Z,91.60
2019-02-26T11:54:42.076Z,91.20
2019-02-26T11:57:13.510Z,90.90
2019-02-26T11:59:44.249Z,90.20
2019-02-26T12:02:14.719Z,90.20
2019-02-26T12:04:45.216Z,89.90
2019-02-26T12:07:15.671Z,89.00
2019-02-26T12:09:46.165Z,87.80
2019-02-26T12:12:16.601Z,86.60
2019-02-26T12:14:48.476Z,84.40
2019-02-26T12:17:20.080Z,83.70
2019-02-26T12:19:51.460Z,80.20
2019-02-26T12:22:24.495Z,76.80
2019-02-26T12:24:55.972Z,76.10
2019-02-26T12:27:26.959Z,71.90
2019-02-26T12:29:57.485Z,69.90
2019-02-26T12:32:29.603Z,65.40
2019-02-26T12:35:00.401Z,64.10
2019-02-26T12:37:30.785Z,60.10
2019-02-26T12:40:01.480Z,55.90
2019-02-26T12:42:32.600Z,53.10
2019-02-26T12:45:04.883Z,49.90
2019-02-26T12:47:35.352Z,47.70
2019-02-26T12:50:09.701Z,46.30
2019-02-26T12:52:38.836Z,45.80
2019-02-26T12:55:10.407Z,45.00
2019-02-26T12:57:42.750Z,46.00
2019-02-26T13:00:19.836Z,45.50
2019-02-26T13:02:52.309Z,42.70
2019-02-26T13:05:23.139Z,42.70
2019-02-26T13:07:53.750Z,43.20
2019-02-26T13:10:24.341Z,43.90
2019-02-26T13:12:59.298Z,44.40
2019-02-26T13:15:28.117Z,42.90
2019-02-26T13:17:58.513Z,42.70
2019-02-26T13:20:28.981Z,41.60
2019-02-26T13:23:16.314Z,42.40
2019-02-26T13:25:32.637Z,43.10
2019-02-26T13:28:04.532Z,42.60
2019-02-26T13:30:35.195Z,41.40
2019-02-26T13:33:10.850Z,42.60
2019-02-26T13:35:41.789Z,43.60
2019-02-26T13:38:11.197Z,44.00
2019-02-26T13:40:42.501Z,43.70
2019-02-26T13:43:13.929Z,44.40
2019-02-26T13:45:44.675Z,44.30
2019-02-26T13:48:16.002Z,44.20
2019-02-26T13:50:46.688Z,47.80
2019-02-26T13:53:17.134Z,51.90
2019-02-26T13:55:47.830Z,56.60
2019-02-26T13:58:18.953Z,59.40
2019-02-26T14:00:49.428Z,63.10
2019-02-26T14:03:20.420Z,65.40
2019-02-26T14:05:50.910Z,67.50
2019-02-26T14:08:21.668Z,69.70
2019-02-26T14:10:52.336Z,71.10
2019-02-26T14:13:23.300Z,72.60
2019-02-26T14:15:53.890Z,74.20
2019-02-26T14:18:24.990Z,74.30
2019-02-26T14:20:55.621Z,76.30
2019-02-26T14:23:26.149Z,76.10
2019-02-26T14:25:56.878Z,75.90
2019-02-26T14:28:27.362Z,76.60
2019-02-26T14:30:57.834Z,76.40
2019-02-26T14:33:28.495Z,76.90
2019-02-26T14:35:59.217Z,77.00
2019-02-26T14:38:29.893Z,78.50
2019-02-26T14:41:01.752Z,79.80
2019-02-26T14:43:33.597Z,80.60
2019-02-26T14:46:04.186Z,81.20
2019-02-26T14:48:40.451Z,80.60
2019-02-26T14:51:11.155Z,80.50
2019-02-26T14:53:41.891Z,80.90
2019-02-26T14:56:12.684Z,80.30
2019-02-26T14:58:43.391Z,80.50
2019-02-26T15:01:14.005Z,80.60
2019-02-26T15:03:44.527Z,81.10
2019-02-26T15:06:15.665Z,81.50
2019-02-26T15:08:46.207Z,81.90
2019-02-26T15:11:16.637Z,82.70
2019-02-26T15:13:47.347Z,83.00
2019-02-26T15:16:19.443Z,83.40
2019-02-26T15:18:50.207Z,83.30
2019-02-26T15:21:21.026Z,83.20
2019-02-26T15:23:51.937Z,83.90
2019-02-26T15:26:22.770Z,84.30
2019-02-26T15:28:53.564Z,84.70
2019-02-26T15:31:24.242Z,86.00
2019-02-26T15:33:54.794Z,85.30
2019-02-26T15:36:25.404Z,86.20
2019-02-26T15:38:56.700Z,86.30
2019-02-26T15:41:27.267Z,86.30
2019-02-26T15:43:58.062Z,86.40
2019-02-26T15:46:28.654Z,87.40
2019-02-26T15:49:01.332Z,87.60
2019-02-26T15:51:33.162Z,88.10
2019-02-26T15:54:03.958Z,88.80
2019-02-26T15:56:34.561Z,89.20
2019-02-26T15:59:05.523Z,90.00
2019-02-26T16:01:36.578Z,90.20
2019-02-26T16:04:07.220Z,90.20
2019-02-26T16:06:37.801Z,90.40
2019-02-26T16:09:09.338Z,90.30
2019-02-26T16:11:40.531Z,90.50
2019-02-26T16:14:11.148Z,90.50
2019-02-26T16:16:42.184Z,90.50
2019-02-26T16:19:12.680Z,90.80
2019-02-26T16:21:43.402Z,91.00
2019-02-26T16:24:14.526Z,91.20
2019-02-26T16:26:45.296Z,91.30
2019-02-26T16:29:17.014Z,91.30
2019-02-26T16:31:47.790Z,91.30
2019-02-26T16:34:19.944Z,91.40
2019-02-26T16:36:50.506Z,91.60
2019-02-26T16:39:22.695Z,91.70
2019-02-26T16:41:53.603Z,91.70
2019-02-26T16:44:24.838Z,91.60
2019-02-26T16:46:56.001Z,91.80
2019-02-26T16:49:27.845Z,92.20
2019-02-26T16:51:58.497Z,92.30
2019-02-26T16:54:29.154Z,92.30
2019-02-26T16:56:59.769Z,92.30
2019-02-26T16:59:30.892Z,92.50
2019-02-26T17:02:02.512Z,92.60
2019-02-26T17:04:33.452Z,92.70
2019-02-26T17:07:04.339Z,92.80
2019-02-26T17:09:35.167Z,92.80
2019-02-26T17:12:05.817Z,92.90
2019-02-26T17:14:36.903Z,92.90
2019-02-26T17:17:07.629Z,92.90
2019-02-26T17:19:38.459Z,93.10
2019-02-26T17:22:09.248Z,93.10
2019-02-26T17:24:40.013Z,93.20
2019-02-26T17:27:10.854Z,93.20
2019-02-26T17:29:41.759Z,93.20
2019-02-26T17:32:12.863Z,93.40
2019-02-26T17:34:43.580Z,93.40
2019-02-26T17:37:14.184Z,93.80
2019-02-26T17:39:45.010Z,93.60
2019-02-26T17:42:22.576Z,93.80
2019-02-26T17:44:54.640Z,93.80
2019-02-26T17:47:25.562Z,93.80
2019-02-26T17:49:56.036Z,93.70
2019-02-26T17:52:26.908Z,93.90
2019-02-26T17:54:57.422Z,94.00
2019-02-26T17:57:27.868Z,94.10
2019-02-26T17:59:58.388Z,94.00
2019-02-26T18:02:29.007Z,93.70
2019-02-26T18:05:00.776Z,94.10
2019-02-26T18:07:31.974Z,94.20
2019-02-26T18:10:02.768Z,94.30
2019-02-26T18:12:33.817Z,94.50
2019-02-26T18:15:05.583Z,94.50
2019-02-26T18:17:36.435Z,94.60
2019-02-26T18:20:08.952Z,94.50
2019-02-26T18:22:40.237Z,94.50
2019-02-26T18:25:12.087Z,94.60
2019-02-26T18:27:42.880Z,94.70
2019-02-26T18:30:18.761Z,94.80
2019-02-26T18:32:59.406Z,94.90
2019-02-26T18:35:30.490Z,94.90
2019-02-26T18:38:01.573Z,94.90
2019-02-26T18:40:32.902Z,94.80
2019-02-26T18:43:03.951Z,95.00
2019-02-26T18:45:34.830Z,95.20
2019-02-26T18:48:05.855Z,95.20
2019-02-26T18:50:36.875Z,95.40
2019-02-26T18:53:07.728Z,95.40
2019-02-26T18:55:38.594Z,95.60
2019-02-26T18:58:09.236Z,95.60
2019-02-26T19:00:40.118Z,95.70
2019-02-26T19:03:12.068Z,95.80
2019-02-26T19:05:43.102Z,95.80
2019-02-26T19:08:13.836Z,95.90
2019-02-26T19:10:44.535Z,95.90
2019-02-26T19:13:15.312Z,96.20
2019-02-26T19:15:47.918Z,96.30
2019-02-26T19:18:18.941Z,96.30
2019-02-26T19:20:50.571Z,96.40
2019-02-26T19:23:22.270Z,96.40
2019-02-26T19:25:54.133Z,96.30
2019-02-26T19:28:27.583Z,96.50
2019-02-26T19:30:58.951Z,96.50
2019-02-26T19:33:31.885Z,96.40
2019-02-26T19:36:04.639Z,96.60
2019-02-26T19:38:37.066Z,96.60
2019-02-26T19:41:13.105Z,96.50
2019-02-26T19:43:44.941Z,96.50
2019-02-26T19:46:18.085Z,96.60
2019-02-26T19:48:52.879Z,96.70
2019-02-26T19:51:29.388Z,96.80
2019-02-26T19:54:00.043Z,97.00
2019-02-26T19:56:34.545Z,97.10
2019-02-26T20:02:01.627Z,97.30
2019-02-26T20:04:33.704Z,97.40
2019-02-26T20:07:04.437Z,97.40
2019-02-26T20:09:38.388Z,98.00
2019-02-26T20:12:10.109Z,97.80
2019-02-26T20:14:41.465Z,97.80
2019-02-26T20:17:14.731Z,97.70
2019-02-26T20:19:44.662Z,97.90
2019-02-26T20:22:16.326Z,98.10
2019-02-26T20:24:47.682Z,98.10
2019-02-26T20:27:21.653Z,98.10
2019-02-26T20:29:51.614Z,98.10
2019-02-26T20:32:23.074Z,98.20
2019-02-26T20:34:54.411Z,98.30
2019-02-26T20:37:25.944Z,98.20
2019-02-26T20:39:58.052Z,98.10
2019-02-26T20:42:30.596Z,98.10
2019-02-26T20:45:02.007Z,98.30
2019-02-26T20:47:38.418Z,98.50
2019-02-26T20:50:10.935Z,98.70
2019-02-26T20:52:41.628Z,98.80
2019-02-26T20:55:13.728Z,98.80
2019-02-26T20:57:44.439Z,98.80
2019-02-26T21:00:19.357Z,99.10
2019-02-26T21:02:50.641Z,98.90
2019-02-26T21:05:21.447Z,98.80
2019-02-26T21:07:52.265Z,98.90
2019-02-26T21:10:23.267Z,98.80
2019-02-26T21:12:54.556Z,98.90
2019-02-26T21:15:25.605Z,99.10
2019-02-26T21:17:58.086Z,99.10
2019-02-26T21:20:29.014Z,99.20
2019-02-26T21:22:59.661Z,99.20
2019-02-26T21:25:30.345Z,99.30
2019-02-26T21:28:01.558Z,99.40
2019-02-26T21:30:32.243Z,99.50
2019-02-26T21:33:03.157Z,99.80
2019-02-26T21:35:34.306Z,99.80
2019-02-26T21:38:06.032Z,99.90
2019-02-26T21:40:48.780Z,99.90
2019-02-26T21:43:18.042Z,99.80
2019-02-26T21:45:49.376Z,99.70
2019-02-26T21:48:21.356Z,99.70
2019-02-26T21:50:54.461Z,99.90
2019-02-26T21:53:24.035Z,99.90
2019-02-26T21:55:55.646Z,99.90
2019-02-26T21:58:31.778Z,99.90
2019-02-26T22:01:02.305Z,99.90
2019-02-26T22:03:32.899Z,99.90
2019-02-26T22:06:05.572Z,99.90
2019-02-26T22:08:36.172Z,99.90
2019-02-26T22:11:06.743Z,99.90
2019-02-26T22:13:37.352Z,99.90
2019-02-26T22:16:08.030Z,99.90
2019-02-26T22:18:39.685Z,99.90
2019-02-26T22:21:10.564Z,99.90
2019-02-26T22:23:41.439Z,99.90
2019-02-26T22:26:11.960Z,99.90
2019-02-26T22:28:42.706Z,99.90
2019-02-26T22:31:13.394Z,99.90
2019-02-26T22:33:46.268Z,99.90
2019-02-26T22:36:16.329Z,99.90
2019-02-26T22:38:49.079Z,99.90
2019-02-26T22:41:18.989Z,99.90
2019-02-26T22:43:49.693Z,99.90
2019-02-26T22:46:20.589Z,99.90
2019-02-26T22:48:51.203Z,99.90
2019-02-26T22:51:21.775Z,99.90
2019-02-26T22:53:52.299Z,99.90
2019-02-26T22:56:24.697Z,99.90
2019-02-26T22:58:55.763Z,99.90
2019-02-26T23:01:36.210Z,99.90
2019-02-26T23:04:04.807Z,99.90
2019-02-26T23:06:35.513Z,99.90
2019-02-26T23:09:08.379Z,99.90
2019-02-26T23:11:40.654Z,99.90
2019-02-26T23:14:11.608Z,99.90
2019-02-26T23:16:43.165Z,99.90
2019-02-26T23:19:14.758Z,99.90
2019-02-26T23:21:49.744Z,99.90
2019-02-26T23:24:18.962Z,99.90
2019-02-26T23:26:49.904Z,99.90
2019-02-26T23:29:20.884Z,99.90
2019-02-26T23:31:51.753Z,99.90
2019-02-26T23:34:24.461Z,99.90
2019-02-26T23:36:55.315Z,99.90
2019-02-26T23:39:26.066Z,99.90
2019-02-26T23:41:57.260Z,99.90
2019-02-26T23:44:27.916Z,99.90
2019-02-26T23:47:01.902Z,99.90
2019-02-26T23:49:31.628Z,99.90
2019-02-26T23:52:02.306Z,99.90
2019-02-26T23:54:32.921Z,99.90
2019-02-26T23:57:03.893Z,99.90
2019-02-26T23:59:34.802Z,99.90
